logo
Rechercher aéroport 
image banner adimage banner adimage banner ad
image banner ad

SCCF - El Loa

Situé à Calama, Chile

ICAO - SCCF, IATA - CJC

Données fournies par Airmate  

Information générale

Coordonnées: S22°30'0" W68°54'11"
Élévation : 7631 feet MSL.
Variation magnétique : -6° East
Voir autres Aéroports à Antofagasta

Données opérationnelles

Special qualification required
Heure actuelle UTC:
Heure actuelle locale:
Météo
METAR: SCCF 231500Z 09005KT CAVOK 20/05 Q1027
TAF: TAF SCCF 231020Z 2312/2412 11010KT CAVOK TX24/2319Z TN09/2410Z BECMG 2316/2318 27022KT TEMPO 2318/2321 27022G34KT BECMG 2400/2402 27010KT BECMG 2405/2407 11015KT
Voir NOTAMs / SUP AIP / TFR affectant cet aéroport [VIEW]
Fréquences de communication: [VIEW]

Pistes:

Identifiant RWYQFULongueur (ft)Largeur (ft)SurfaceLDA (ft)
1094°9974148ASP
28274°9974148ASP

Coordonnées de l'aéroport

Adresse: Calama Chile

Autres services d'aviation

Clubs d'aviation (sans but lucratif)

Club Aéreo Calama

Club Aéreo Calama
clubaereodecalama@gmail.com+56985888099
+56985888099

Club Aéreo San Pedro De Atacama

Club Aéreo San Pedro De Atacama

Vue satellite de SCCF